Time;durP1;ratioP1;P1;durP2;ratioP2;P2;SDS_P1;SDS_P2;PMS_P1;PMS_P2;Temp;Humidity;BMP_temperature;BMP_pressure;BME280_temperature;BME280_humidity;BME280_pressure;Samples;Min_cycle;Max_cycle;Signal;HPM_P1;HPM_P2
2022/09/22 00:01:21;;;;;;;1.85;0.73;;;13.20;94.80;;;;;;5034095;28;20021;-79
2022/09/22 00:03:53;;;;;;;1.80;0.60;;;13.20;94.60;;;;;;5029722;28;20030;-79
2022/09/22 00:06:28;;;;;;;2.20;0.57;;;13.10;95.00;;;;;;5032678;28;20029;-78
2022/09/22 00:08:59;;;;;;;1.92;0.60;;;13.10;95.00;;;;;;5030249;28;20045;-78
2022/09/22 00:11:28;;;;;;;4.05;1.00;;;13.00;95.10;;;;;;5034182;28;20036;-79
2022/09/22 00:13:59;;;;;;;2.78;1.00;;;13.00;95.20;;;;;;5036465;28;20068;-78
2022/09/22 00:16:47;;;;;;;5.57;0.75;;;13.10;95.50;;;;;;5032719;28;20887;-79
2022/09/22 00:19:21;;;;;;;2.28;0.70;;;13.10;95.50;;;;;;5029410;28;20101;-78
2022/09/22 00:21:47;;;;;;;;;;;13.10;95.00;;;;;;5030345;28;20036;-79
2022/09/22 00:24:14;;;;;;;2.33;0.50;;;13.20;95.30;;;;;;5030584;28;19909;-78
2022/09/22 00:26:40;;;;;;;4.35;1.00;;;13.10;95.30;;;;;;5033022;28;20399;-79
2022/09/22 00:29:08;;;;;;;3.30;1.33;;;13.20;94.90;;;;;;5031150;28;20037;-78
2022/09/22 00:31:35;;;;;;;0.77;0.63;;;13.30;94.80;;;;;;5030589;28;20395;-79
2022/09/22 00:34:01;;;;;;;3.13;0.60;;;13.30;94.90;;;;;;5035892;28;20124;-79
2022/09/22 00:36:27;;;;;;;3.13;1.10;;;13.20;95.00;;;;;;5031583;28;20520;-78
2022/09/22 00:38:55;;;;;;;3.50;0.95;;;13.20;95.10;;;;;;5031510;28;20392;-79
2022/09/22 00:41:27;;;;;;;2.83;0.68;;;13.20;95.30;;;;;;5036514;28;20430;-78
2022/09/22 00:44:32;;;;;;;1.98;0.63;;;13.20;95.50;;;;;;5028440;28;20116;-79
2022/09/22 00:47:27;;;;;;;4.03;0.88;;;13.20;95.60;;;;;;5033217;28;20073;-79
2022/09/22 00:49:56;;;;;;;3.42;0.63;;;13.10;95.30;;;;;;5029528;28;20064;-79
2022/09/22 00:52:37;;;;;;;3.45;1.38;;;13.10;95.40;;;;;;5029839;28;20032;-78
2022/09/22 00:55:09;;;;;;;1.60;0.68;;;13.10;95.40;;;;;;5029476;28;20037;-78
2022/09/22 00:57:38;;;;;;;2.35;0.70;;;13.10;95.40;;;;;;5045912;28;20390;-79
2022/09/22 01:00:07;;;;;;;2.53;0.77;;;13.00;95.40;;;;;;5037358;28;20059;-78
2022/09/22 01:02:32;;;;;;;4.68;1.25;;;13.00;95.60;;;;;;5027757;28;20039;-78
2022/09/22 01:04:58;;;;;;;1.25;0.50;;;13.00;95.70;;;;;;5032528;28;20104;-79
2022/09/22 01:07:27;;;;;;;1.90;0.77;;;12.90;95.90;;;;;;5028879;28;20060;-78
2022/09/22 01:09:54;;;;;;;3.78;0.80;;;12.90;96.00;;;;;;5028395;28;20021;-79
2022/09/22 01:12:22;;;;;;;1.30;0.70;;;12.90;96.00;;;;;;5029078;28;20045;-78
2022/09/22 01:14:56;;;;;;;4.60;1.20;;;12.90;96.00;;;;;;5035383;28;20040;-79
2022/09/22 01:17:31;;;;;;;3.38;0.82;;;12.90;96.10;;;;;;5031262;28;20372;-78
2022/09/22 01:20:24;;;;;;;2.75;1.10;;;12.90;96.10;;;;;;5029219;28;20467;-78
2022/09/22 01:23:05;;;;;;;4.20;1.10;;;13.00;96.20;;;;;;5026313;28;20104;-79
2022/09/22 01:25:49;;;;;;;3.80;1.15;;;13.00;96.00;;;;;;5029318;28;20030;-78
2022/09/22 01:28:56;;;;;;;3.05;1.27;;;13.00;96.20;;;;;;5027627;28;20037;-78
2022/09/22 01:31:28;;;;;;;1.33;0.80;;;13.00;96.10;;;;;;5029980;28;20057;-79
2022/09/22 01:34:26;;;;;;;3.80;1.40;;;13.00;96.20;;;;;;5030330;28;20025;-79
2022/09/22 01:37:03;;;;;;;1.55;0.85;;;13.00;96.30;;;;;;5028895;28;20047;-79
2022/09/22 01:39:41;;;;;;;3.25;1.20;;;13.00;96.40;;;;;;5027651;28;20034;-78
2022/09/22 01:42:14;;;;;;;3.00;0.73;;;12.90;96.50;;;;;;5031841;28;20091;-79
2022/09/22 01:44:48;;;;;;;5.35;1.08;;;12.90;96.50;;;;;;5030640;28;20122;-78
2022/09/22 01:47:22;;;;;;;1.92;1.00;;;12.90;96.30;;;;;;5028803;28;20109;-79
2022/09/22 01:49:58;;;;;;;6.05;1.00;;;12.90;96.40;;;;;;5027673;28;20040;-78
2022/09/22 01:52:31;;;;;;;3.38;1.25;;;12.80;96.60;;;;;;5037775;28;20029;-78
2022/09/22 01:55:06;;;;;;;2.60;1.00;;;12.80;96.50;;;;;;5027961;28;20037;-79
2022/09/22 01:58:01;;;;;;;2.42;0.95;;;12.80;96.60;;;;;;5029258;28;20439;-79
2022/09/22 02:00:26;;;;;;;5.47;1.33;;;12.80;96.80;;;;;;5030898;28;20467;-78
2022/09/22 02:03:03;;;;;;;3.45;1.00;;;12.70;97.20;;;;;;5030452;28;20079;-78
2022/09/22 02:05:40;;;;;;;2.25;0.93;;;12.60;97.10;;;;;;5026660;28;20029;-79
2022/09/22 02:08:12;;;;;;;3.17;0.93;;;12.50;97.30;;;;;;5029632;28;20140;-78
2022/09/22 02:10:41;;;;;;;1.98;1.00;;;12.40;97.60;;;;;;5035236;28;20116;-79
2022/09/22 02:13:07;;;;;;;4.00;0.88;;;12.40;97.50;;;;;;5033673;28;20065;-79
2022/09/22 02:18:21;;;;;;;1.67;0.90;;;12.10;98.10;;;;;;5030134;28;20041;-79
2022/09/22 02:20:49;;;;;;;1.90;0.70;;;12.10;98.20;;;;;;5027738;28;20029;-79
2022/09/22 02:23:15;;;;;;;2.67;1.15;;;12.00;98.30;;;;;;5027777;28;20036;-79
2022/09/22 02:25:43;;;;;;;3.33;0.85;;;12.00;98.20;;;;;;5030603;28;20045;-78
2022/09/22 02:28:12;;;;;;;2.97;1.25;;;12.10;98.00;;;;;;5027605;28;20129;-79
2022/09/22 02:30:40;;;;;;;2.10;0.73;;;12.10;97.90;;;;;;5028026;28;20037;-79
2022/09/22 02:33:06;;;;;;;2.00;0.90;;;12.00;98.20;;;;;;5029047;28;20041;-79
2022/09/22 02:35:35;;;;;;;5.53;1.05;;;11.60;99.20;;;;;;5027623;28;20435;-78
2022/09/22 02:38:24;;;;;;;3.15;0.70;;;11.60;99.00;;;;;;5027171;28;20064;-79
2022/09/22 02:41:05;;;;;;;1.95;0.80;;;11.70;98.70;;;;;;5034100;28;20095;-79
2022/09/22 02:43:47;;;;;;;3.20;1.00;;;11.70;98.70;;;;;;5033462;28;20086;-78
2022/09/22 02:46:21;;;;;;;4.47;0.90;;;11.70;99.00;;;;;;5028396;28;20463;-78
2022/09/22 02:48:53;;;;;;;2.70;1.10;;;11.70;98.90;;;;;;5027573;28;20030;-78
2022/09/22 02:51:20;;;;;;;3.22;1.02;;;11.60;98.90;;;;;;5031407;28;20049;-79
2022/09/22 02:53:45;;;;;;;3.00;1.30;;;11.60;98.90;;;;;;5027181;28;20488;-79
2022/09/22 02:56:11;;;;;;;2.50;1.08;;;11.60;98.90;;;;;;5026540;28;20040;-79
2022/09/22 02:58:37;;;;;;;2.35;0.80;;;11.60;99.00;;;;;;5028817;28;20038;-78
2022/09/22 03:01:03;;;;;;;3.38;0.93;;;11.60;98.90;;;;;;5027249;28;20040;-78
2022/09/22 03:03:29;;;;;;;1.70;0.80;;;11.50;99.20;;;;;;5026658;28;20047;-78
2022/09/22 03:05:55;;;;;;;1.58;0.98;;;11.40;99.20;;;;;;5024574;28;20101;-78
2022/09/22 03:08:20;;;;;;;3.00;1.13;;;11.40;99.30;;;;;;5023661;28;20132;-78
2022/09/22 03:10:46;;;;;;;5.43;1.67;;;11.40;99.30;;;;;;5022095;28;20025;-78
2022/09/22 03:13:12;;;;;;;3.72;1.02;;;11.40;99.30;;;;;;5027114;28;20058;-78
2022/09/22 03:15:37;;;;;;;3.58;1.05;;;11.30;99.30;;;;;;5025683;28;20036;-78
2022/09/22 03:18:03;;;;;;;1.75;0.70;;;11.20;99.40;;;;;;5020935;28;20029;-78
2022/09/22 03:20:29;;;;;;;3.25;1.08;;;11.10;99.50;;;;;;5021612;28;20047;-78
2022/09/22 03:22:54;;;;;;;4.68;0.93;;;11.10;99.30;;;;;;5022868;28;20029;-78
2022/09/22 03:25:20;;;;;;;2.22;0.88;;;11.10;99.50;;;;;;5025501;28;20072;-78
2022/09/22 03:27:47;;;;;;;1.50;0.88;;;11.00;99.60;;;;;;5028375;28;20614;-79
2022/09/22 03:30:13;;;;;;;6.00;1.48;;;11.00;99.50;;;;;;5026851;28;20864;-78
2022/09/22 03:32:38;;;;;;;2.38;1.08;;;11.10;99.50;;;;;;5033165;28;20644;-78
2022/09/22 03:35:05;;;;;;;2.55;0.90;;;11.00;99.60;;;;;;5027994;28;20029;-78
2022/09/22 03:37:32;;;;;;;3.45;1.40;;;11.00;99.70;;;;;;5032451;28;20537;-77
2022/09/22 03:39:58;;;;;;;2.42;0.90;;;11.00;99.40;;;;;;5026328;28;20419;-78
2022/09/22 03:42:23;;;;;;;1.95;0.95;;;11.00;99.50;;;;;;5034473;28;20045;-77
2022/09/22 03:44:49;;;;;;;2.13;0.73;;;11.00;99.60;;;;;;5028937;28;20068;-78
2022/09/22 03:47:15;;;;;;;3.38;0.93;;;11.00;99.50;;;;;;5025790;28;20037;-79
2022/09/22 03:49:40;;;;;;;2.28;0.90;;;11.00;99.30;;;;;;5033467;28;20056;-78
2022/09/22 03:52:06;;;;;;;1.60;0.80;;;10.90;99.40;;;;;;5029232;28;20037;-78
2022/09/22 03:54:32;;;;;;;4.45;0.77;;;10.90;99.50;;;;;;5027999;28;20029;-78
2022/09/22 03:56:58;;;;;;;2.97;1.00;;;10.90;99.40;;;;;;5027137;28;20049;-79
2022/09/22 03:59:23;;;;;;;4.35;1.10;;;10.90;99.40;;;;;;5028868;28;20040;-78
2022/09/22 04:01:49;;;;;;;2.13;1.10;;;11.10;99.10;;;;;;5024907;28;20099;-78
2022/09/22 04:04:15;;;;;;;3.33;1.20;;;11.00;99.40;;;;;;5024154;28;20033;-78
2022/09/22 04:06:40;;;;;;;3.90;0.98;;;10.80;99.70;;;;;;5034035;28;20502;-78
2022/09/22 04:09:06;;;;;;;3.58;0.90;;;10.80;99.80;;;;;;5026042;28;20140;-79
2022/09/22 04:11:32;;;;;;;1.70;0.98;;;10.70;99.90;;;;;;5028034;28;20029;-79
2022/09/22 04:14:00;;;;;;;3.53;0.65;;;10.50;99.90;;;;;;5023265;28;20041;-78
2022/09/22 04:16:27;;;;;;;3.55;1.02;;;10.50;99.90;;;;;;5025002;28;20037;-79
2022/09/22 04:18:52;;;;;;;2.83;1.27;;;10.40;99.90;;;;;;5024294;28;20124;-78
2022/09/22 04:21:18;;;;;;;5.20;1.10;;;10.40;99.90;;;;;;5023608;28;20109;-78
2022/09/22 04:23:44;;;;;;;3.55;1.08;;;10.50;99.90;;;;;;5022745;28;20049;-78
2022/09/22 04:26:09;;;;;;;4.82;1.00;;;10.60;99.90;;;;;;5027862;28;20040;-79
2022/09/22 04:28:35;;;;;;;3.33;0.70;;;10.80;99.90;;;;;;5022411;28;20030;-79
2022/09/22 04:31:01;;;;;;;2.08;0.98;;;10.90;99.60;;;;;;5023154;28;20034;-79
2022/09/22 04:33:26;;;;;;;2.75;1.00;;;10.80;99.90;;;;;;5028583;28;20087;-78
2022/09/22 04:35:52;;;;;;;1.70;0.80;;;10.70;99.90;;;;;;5025425;28;20022;-78
2022/09/22 04:38:18;;;;;;;1.92;1.05;;;10.70;99.90;;;;;;5025274;28;20034;-79
2022/09/22 04:40:45;;;;;;;2.15;0.80;;;10.90;99.90;;;;;;5025700;28;20030;-78
2022/09/22 04:43:11;;;;;;;1.55;0.70;;;11.00;99.70;;;;;;5028449;28;20418;-79
2022/09/22 04:45:36;;;;;;;2.53;0.90;;;11.30;98.90;;;;;;5024916;28;20033;-79
2022/09/22 04:48:03;;;;;;;1.67;0.70;;;11.40;99.00;;;;;;5022874;28;20091;-78
2022/09/22 04:50:29;;;;;;;3.90;1.00;;;11.60;98.50;;;;;;5027239;28;20103;-79
2022/09/22 04:52:56;;;;;;;3.38;0.77;;;11.50;98.60;;;;;;5037666;28;20457;-77
2022/09/22 04:55:23;;;;;;;1.73;0.80;;;11.60;98.50;;;;;;5025067;28;20033;-77
2022/09/22 04:57:54;;;;;;;1.83;0.63;;;11.50;98.70;;;;;;5022186;28;20033;-77
2022/09/22 05:00:21;;;;;;;2.85;0.77;;;11.50;98.70;;;;;;5022838;28;20087;-78
2022/09/22 05:02:47;;;;;;;2.63;1.05;;;11.60;98.90;;;;;;5022520;28;20411;-78
2022/09/22 05:05:13;;;;;;;2.92;0.90;;;11.60;98.60;;;;;;5027090;28;20029;-77
2022/09/22 05:07:41;;;;;;;2.53;0.90;;;11.50;99.20;;;;;;5022034;28;20049;-78
2022/09/22 05:10:09;;;;;;;2.00;0.90;;;11.40;99.40;;;;;;5022867;28;20434;-78
2022/09/22 05:12:38;;;;;;;2.67;0.77;;;11.30;99.50;;;;;;5021739;28;20133;-77
2022/09/22 05:15:04;;;;;;;1.83;0.88;;;11.30;99.60;;;;;;5021591;28;20112;-78
2022/09/22 05:17:30;;;;;;;2.90;1.15;;;11.40;99.90;;;;;;5021943;28;20132;-77
2022/09/22 05:19:56;;;;;;;1.73;0.90;;;11.40;99.50;;;;;;5025590;28;20120;-78
2022/09/22 05:22:21;;;;;;;4.32;1.15;;;11.40;99.30;;;;;;5025303;28;20613;-77
2022/09/22 05:24:47;;;;;;;3.80;1.05;;;11.50;99.40;;;;;;5026086;28;20398;-78
2022/09/22 05:27:13;;;;;;;4.60;1.10;;;11.50;99.30;;;;;;5025277;28;20043;-77
2022/09/22 05:29:39;;;;;;;5.25;1.63;;;11.60;99.00;;;;;;5029851;28;20030;-77
2022/09/22 05:32:05;;;;;;;4.57;1.25;;;11.70;99.00;;;;;;5026014;28;20617;-78
2022/09/22 05:34:31;;;;;;;2.63;1.00;;;11.70;99.80;;;;;;5022421;28;20060;-77
2022/09/22 05:36:57;;;;;;;3.60;1.00;;;11.70;99.80;;;;;;5022047;28;20061;-77
2022/09/22 05:39:23;;;;;;;3.20;0.77;;;11.70;99.90;;;;;;5022450;28;20586;-78
2022/09/22 05:41:48;;;;;;;2.53;1.20;;;11.60;99.90;;;;;;5024166;28;20030;-78
2022/09/22 05:44:15;;;;;;;2.78;1.23;;;11.80;99.40;;;;;;5025018;28;20036;-77
2022/09/22 05:46:41;;;;;;;2.63;1.30;;;11.80;99.50;;;;;;5022289;28;20098;-78
2022/09/22 05:49:06;;;;;;;1.90;0.85;;;11.80;99.60;;;;;;5021494;28;20037;-77
2022/09/22 05:51:32;;;;;;;5.15;1.48;;;11.80;99.90;;;;;;5020705;28;21007;-77
2022/09/22 05:53:58;;;;;;;3.60;1.20;;;11.90;98.90;;;;;;5029211;28;20098;-77
2022/09/22 05:56:23;;;;;;;3.60;1.48;;;12.00;99.10;;;;;;5025242;28;20464;-78
2022/09/22 05:58:49;;;;;;;4.53;1.90;;;12.00;98.80;;;;;;5022261;28;20017;-77
2022/09/22 06:01:15;;;;;;;3.45;1.50;;;12.10;98.60;;;;;;5020954;28;20029;-77
2022/09/22 06:03:40;;;;;;;4.60;1.52;;;12.10;98.60;;;;;;5021543;28;20475;-78
2022/09/22 06:06:06;;;;;;;3.80;1.52;;;12.20;98.80;;;;;;5029002;28;20086;-77
2022/09/22 06:08:31;;;;;;;3.15;0.98;;;12.20;99.00;;;;;;5023598;28;20099;-77
2022/09/22 06:10:57;;;;;;;3.45;1.30;;;12.20;99.40;;;;;;5027338;28;20029;-78
2022/09/22 06:13:23;;;;;;;5.78;2.20;;;12.20;99.60;;;;;;5022280;28;20055;-78
2022/09/22 06:15:49;;;;;;;5.15;1.83;;;12.20;99.70;;;;;;5023269;28;20033;-79
2022/09/22 06:18:18;;;;;;;3.80;1.50;;;12.30;99.90;;;;;;5027037;28;20483;-78
2022/09/22 06:20:45;;;;;;;4.03;1.23;;;12.30;99.90;;;;;;5021403;28;20044;-76
2022/09/22 06:23:14;;;;;;;3.08;1.38;;;12.40;99.90;;;;;;5026253;28;20410;-80
2022/09/22 06:25:41;;;;;;;2.08;0.98;;;12.40;99.40;;;;;;5029617;28;20069;-80
2022/09/22 06:28:08;;;;;;;2.58;1.08;;;12.50;99.70;;;;;;5026493;28;20515;-79
2022/09/22 06:30:38;;;;;;;2.70;0.93;;;12.50;99.40;;;;;;5050905;28;20022;-79
2022/09/22 06:33:04;;;;;;;1.92;0.80;;;12.60;99.30;;;;;;5030745;28;20099;-79
2022/09/22 06:35:39;;;;;;;7.85;1.35;;;12.70;99.40;;;;;;5034126;28;20029;-78
2022/09/22 06:38:11;;;;;;;2.75;1.20;;;12.80;99.70;;;;;;5028919;28;20060;-80
2022/09/22 06:40:36;;;;;;;3.75;1.70;;;12.80;99.90;;;;;;5021716;28;20492;-78
2022/09/22 06:43:06;;;;;;;4.03;1.35;;;12.90;99.90;;;;;;5029793;28;20120;-78
2022/09/22 06:45:32;;;;;;;3.55;1.10;;;12.80;99.90;;;;;;5026073;28;20349;-78
2022/09/22 06:47:59;;;;;;;3.75;0.85;;;12.80;99.90;;;;;;5021164;28;20136;-78
2022/09/22 06:50:31;;;;;;;3.45;1.33;;;12.80;99.70;;;;;;5021636;28;20084;-78
2022/09/22 06:53:01;;;;;;;3.35;1.30;;;12.90;99.90;;;;;;5026787;28;20124;-78
2022/09/22 06:55:28;;;;;;;3.33;1.40;;;13.00;99.90;;;;;;5026044;28;20025;-77
2022/09/22 06:57:58;;;;;;;2.10;0.98;;;12.90;99.80;;;;;;5027215;28;20104;-78
2022/09/22 07:00:32;;;;;;;5.32;1.30;;;12.90;99.90;;;;;;5025594;28;20048;-79
2022/09/22 07:03:07;;;;;;;4.63;1.38;;;12.90;99.90;;;;;;5025494;28;20040;-79
2022/09/22 07:05:35;;;;;;;2.85;1.23;;;12.80;99.90;;;;;;5026518;28;20029;-80
2022/09/22 07:08:03;;;;;;;5.50;1.38;;;12.80;99.90;;;;;;5025991;28;20041;-79
2022/09/22 07:10:29;;;;;;;4.05;1.30;;;12.90;99.90;;;;;;5024343;28;20025;-79
2022/09/22 07:12:57;;;;;;;3.53;1.45;;;12.80;99.60;;;;;;5026462;28;20585;-78
2022/09/22 07:15:23;;;;;;;3.75;1.08;;;12.90;99.10;;;;;;5023699;28;20037;-79
2022/09/22 07:17:52;;;;;;;5.53;1.00;;;13.00;99.40;;;;;;5024312;28;20033;-77
2022/09/22 07:20:19;;;;;;;13.50;1.60;;;13.00;99.50;;;;;;5027634;28;20037;-77
2022/09/22 07:22:45;;;;;;;3.28;1.10;;;13.10;99.30;;;;;;5031640;28;20036;-79
2022/09/22 07:25:11;;;;;;;3.63;1.10;;;13.10;98.90;;;;;;5023928;28;20049;-78
2022/09/22 07:27:37;;;;;;;3.60;1.13;;;13.20;99.70;;;;;;5031457;28;20048;-78
2022/09/22 07:30:03;;;;;;;20.48;2.10;;;13.30;99.30;;;;;;5026248;28;20034;-78
2022/09/22 07:32:33;;;;;;;7.30;1.65;;;13.30;99.30;;;;;;5025500;28;20029;-79
2022/09/22 07:34:59;;;;;;;6.70;1.48;;;13.30;99.40;;;;;;5027095;28;20037;-76
2022/09/22 07:37:28;;;;;;;4.93;1.70;;;13.30;99.50;;;;;;5029181;28;20026;-74
2022/09/22 07:39:54;;;;;;;4.15;1.95;;;13.30;99.50;;;;;;5024748;28;20055;-75
2022/09/22 07:42:20;;;;;;;9.93;1.73;;;13.30;99.40;;;;;;5026761;28;25085;-75
2022/09/22 07:50:16;;;;;;;3.42;1.30;;;13.50;97.90;;;;;;5030469;28;20055;-77
2022/09/22 07:52:42;;;;;;;10.68;7.70;;;13.60;97.10;;;;;;5034313;28;20029;-76
2022/09/22 07:55:08;;;;;;;4.22;2.03;;;13.70;97.80;;;;;;5031352;28;20223;-76
2022/09/22 07:57:33;;;;;;;3.30;1.45;;;13.70;97.70;;;;;;5025146;28;20030;-76
2022/09/22 07:59:59;;;;;;;4.22;1.90;;;13.80;97.90;;;;;;5023629;28;20053;-79
2022/09/22 08:02:26;;;;;;;4.55;1.67;;;13.90;97.80;;;;;;5028851;28;20056;-78
2022/09/22 08:04:52;;;;;;;8.77;4.00;;;13.90;97.50;;;;;;5024943;28;20033;-78
2022/09/22 08:07:17;;;;;;;10.25;5.57;;;14.10;97.80;;;;;;5027838;28;20034;-77
2022/09/22 08:09:43;;;;;;;6.53;2.22;;;14.30;97.50;;;;;;5023752;28;20040;-76
2022/09/22 08:12:10;;;;;;;4.05;1.90;;;14.40;97.20;;;;;;5022971;28;20052;-76
2022/09/22 08:14:35;;;;;;;4.47;1.52;;;14.40;96.80;;;;;;5030083;28;20021;-76
2022/09/22 08:17:01;;;;;;;3.30;1.30;;;14.50;97.00;;;;;;5027126;28;20384;-76
2022/09/22 08:19:27;;;;;;;4.22;1.40;;;14.30;96.60;;;;;;5026627;28;20487;-77
2022/09/22 08:21:53;;;;;;;3.85;1.77;;;14.20;96.80;;;;;;5031980;28;20025;-77
2022/09/22 08:24:20;;;;;;;3.72;1.40;;;14.50;96.40;;;;;;5029774;28;20025;-77
2022/09/22 08:26:47;;;;;;;4.40;1.73;;;14.50;96.30;;;;;;5023629;28;20036;-76
2022/09/22 08:29:12;;;;;;;3.97;1.48;;;14.70;96.30;;;;;;5022643;28;20033;-77
2022/09/22 08:31:40;;;;;;;5.68;1.60;;;14.90;96.20;;;;;;5023761;28;20086;-77
2022/09/22 08:34:07;;;;;;;3.42;1.40;;;14.90;95.60;;;;;;5022515;28;20515;-76
2022/09/22 08:36:33;;;;;;;3.78;1.25;;;14.90;95.50;;;;;;5026855;28;20063;-77
2022/09/22 08:39:00;;;;;;;4.35;1.55;;;15.00;96.10;;;;;;5024576;28;20057;-77
2022/09/22 08:41:36;;;;;;;4.43;1.20;;;15.10;96.10;;;;;;5028856;28;20029;-77
2022/09/22 08:44:39;;;;;;;2.03;1.02;;;15.20;95.10;;;;;;5024239;28;20018;-76
2022/09/22 08:47:05;;;;;;;3.72;1.42;;;14.90;94.90;;;;;;5028121;28;20116;-77
2022/09/22 08:52:21;;;;;;;3.47;1.50;;;15.20;95.30;;;;;;5023064;28;20124;-77
2022/09/22 08:54:47;;;;;;;4.68;1.70;;;15.10;95.40;;;;;;5025501;28;20088;-77
2022/09/22 08:58:07;;;;;;;4.88;1.40;;;15.00;94.80;;;;;;5022646;28;20025;-77
2022/09/22 09:00:40;;;;;;;3.45;1.10;;;14.80;94.70;;;;;;5025289;28;20056;-77
2022/09/22 09:03:24;;;;;;;4.88;1.67;;;15.00;95.10;;;;;;5021501;28;20531;-76
2022/09/22 09:06:03;;;;;;;2.80;1.23;;;15.10;95.70;;;;;;5021671;28;20547;-77
2022/09/22 09:08:38;;;;;;;2.88;1.23;;;15.10;95.00;;;;;;5027396;28;20322;-76
2022/09/22 09:11:41;;;;;;;2.15;1.00;;;15.10;95.10;;;;;;5028378;28;20203;-77
2022/09/22 09:14:29;;;;;;;5.30;1.33;;;16.60;93.60;;;;;;5030463;28;20103;-76
2022/09/22 09:17:03;;;;;;;4.57;1.30;;;20.60;90.60;;;;;;5025783;28;20037;-77
2022/09/22 09:19:38;;;;;;;4.57;1.33;;;20.70;87.00;;;;;;5021500;28;20033;-77
2022/09/22 09:22:11;;;;;;;;;;;19.00;88.90;;;;;;5022478;28;20110;-76
2022/09/22 09:24:44;;;;;;;3.28;1.20;;;18.10;90.40;;;;;;5025544;28;19952;-77
2022/09/22 09:27:18;;;;;;;3.75;1.20;;;17.10;90.80;;;;;;5025460;28;20060;-76
2022/09/22 09:29:59;;;;;;;3.15;1.02;;;17.10;91.50;;;;;;5021870;28;20498;-77
2022/09/22 09:32:43;;;;;;;2.78;1.48;;;16.80;91.10;;;;;;5024195;28;20037;-77
2022/09/22 09:35:13;;;;;;;;;;;16.50;91.70;;;;;;5027652;28;20149;-77
2022/09/22 09:37:45;;;;;;;3.50;1.15;;;16.40;91.70;;;;;;5028305;28;20374;-78
2022/09/22 09:40:17;;;;;;;2.67;1.08;;;16.40;91.70;;;;;;5028910;28;20728;-77
2022/09/22 09:43:02;;;;;;;2.92;1.27;;;16.70;92.40;;;;;;5028777;28;20711;-77
2022/09/22 09:45:41;;;;;;;2.70;1.13;;;16.90;92.50;;;;;;5021221;28;20055;-77
2022/09/22 09:48:28;;;;;;;4.82;1.13;;;16.90;92.20;;;;;;5027314;28;20470;-77
2022/09/22 09:50:54;;;;;;;3.25;1.42;;;16.90;91.90;;;;;;5029514;28;20550;-77
2022/09/22 09:53:33;;;;;;;3.97;1.70;;;17.00;91.80;;;;;;5028398;28;20102;-77
2022/09/22 09:55:59;;;;;;;5.50;1.30;;;16.90;91.80;;;;;;5028644;28;20026;-77
2022/09/22 10:01:13;;;;;;;2.65;1.13;;;17.00;91.50;;;;;;5024336;28;20387;-76
2022/09/22 10:03:50;;;;;;;2.20;1.00;;;17.10;91.70;;;;;;5027059;28;20080;-77
2022/09/22 10:06:24;;;;;;;4.57;1.25;;;17.00;91.30;;;;;;5026110;28;20017;-77
2022/09/22 10:08:50;;;;;;;3.97;1.13;;;16.90;91.80;;;;;;5029526;28;20045;-77
2022/09/22 10:11:30;;;;;;;2.80;1.30;;;17.00;92.30;;;;;;5026058;28;20037;-77
2022/09/22 10:13:56;;;;;;;2.95;1.13;;;17.00;92.10;;;;;;5033314;28;20721;-77
2022/09/22 10:16:30;;;;;;;1.73;0.82;;;17.20;92.00;;;;;;5021637;28;20041;-77
2022/09/22 10:19:21;;;;;;;3.13;1.15;;;17.40;91.70;;;;;;5023462;28;20032;-77
2022/09/22 10:21:47;;;;;;;4.82;0.80;;;17.50;92.50;;;;;;5021981;28;20033;-77
2022/09/22 10:24:33;;;;;;;2.10;1.00;;;17.50;91.40;;;;;;5020579;28;20030;-77
2022/09/22 10:26:59;;;;;;;9.45;1.17;;;17.50;91.60;;;;;;5022595;28;20033;-77
2022/09/22 10:29:26;;;;;;;2.47;0.75;;;17.60;91.50;;;;;;5019785;28;20099;-76
2022/09/22 10:32:00;;;;;;;3.00;0.70;;;17.40;91.30;;;;;;5029076;28;20028;-77
2022/09/22 10:34:35;;;;;;;2.65;0.68;;;17.50;91.60;;;;;;5033092;28;20381;-77
2022/09/22 10:37:06;;;;;;;3.72;0.70;;;17.50;90.90;;;;;;5031561;28;20033;-77
2022/09/22 10:39:39;;;;;;;1.52;0.70;;;17.60;91.40;;;;;;5032061;28;20029;-77
2022/09/22 10:42:13;;;;;;;1.52;0.50;;;17.60;90.80;;;;;;5030806;28;20025;-77
2022/09/22 10:44:39;;;;;;;1.38;0.60;;;17.70;90.70;;;;;;5028148;28;20387;-77
2022/09/22 10:47:11;;;;;;;1.98;0.80;;;18.10;90.30;;;;;;5031711;28;20368;-77
2022/09/22 10:49:49;;;;;;;2.70;0.63;;;18.40;90.80;;;;;;5030423;28;20068;-77
2022/09/22 10:52:24;;;;;;;1.75;0.68;;;18.10;90.10;;;;;;5033829;28;20025;-78
2022/09/22 10:55:02;;;;;;;2.65;0.70;;;18.10;89.70;;;;;;5049627;28;20449;-77
2022/09/22 10:57:42;;;;;;;1.52;0.68;;;18.30;89.40;;;;;;5061236;28;20040;-77
2022/09/22 11:00:25;;;;;;;1.90;0.70;;;18.10;89.80;;;;;;5029316;28;20390;-77
2022/09/22 11:03:21;;;;;;;1.67;1.02;;;18.20;90.50;;;;;;5026611;28;20036;-77
2022/09/22 11:12:24;;;;;;;1.27;0.57;;;19.00;87.90;;;;;;5036984;28;20056;-79
2022/09/22 11:15:19;;;;;;;3.15;1.27;;;19.00;86.70;;;;;;5026528;28;20025;-76
2022/09/22 11:18:22;;;;;;;4.03;0.95;;;19.40;85.40;;;;;;5026751;28;20022;-77
2022/09/22 11:20:54;;;;;;;2.42;0.70;;;19.40;84.10;;;;;;5025595;28;20326;-77
2022/09/22 11:23:35;;;;;;;1.80;0.73;;;19.30;85.40;;;;;;5033937;28;20076;-77
2022/09/22 11:26:04;;;;;;;2.45;0.73;;;19.20;85.10;;;;;;5032024;28;20044;-77
2022/09/22 11:28:52;;;;;;;2.90;0.80;;;19.50;87.60;;;;;;5031416;28;20041;-77
2022/09/22 11:31:35;;;;;;;2.25;0.70;;;19.40;86.30;;;;;;5037997;28;20029;-77
2022/09/22 11:34:19;;;;;;;3.60;0.77;;;19.50;86.20;;;;;;5037254;28;20506;-77
2022/09/22 11:37:24;;;;;;;1.33;0.73;;;19.60;85.80;;;;;;5029069;28;20363;-76
2022/09/22 11:40:14;;;;;;;2.83;0.90;;;19.50;84.10;;;;;;5032296;28;20030;-76
2022/09/22 11:42:43;;;;;;;3.97;0.98;;;19.80;82.90;;;;;;5030712;28;20032;-77
2022/09/22 11:45:26;;;;;;;2.78;0.90;;;19.90;83.00;;;;;;5031606;28;20072;-78
2022/09/22 11:48:45;;;;;;;1.48;0.60;;;20.00;82.10;;;;;;5026026;28;20079;-76
2022/09/22 11:51:14;;;;;;;1.40;0.60;;;20.10;85.00;;;;;;5001665;28;20033;-76
2022/09/22 11:53:57;;;;;;;0.85;0.47;;;20.00;83.30;;;;;;5026573;28;20356;-76
2022/09/22 11:56:43;;;;;;;2.63;0.93;;;20.00;85.10;;;;;;5037085;28;20629;-76
2022/09/22 11:59:31;;;;;;;1.60;0.55;;;20.10;83.90;;;;;;5033512;28;20029;-76
2022/09/22 12:02:03;;;;;;;1.42;0.55;;;20.20;81.60;;;;;;5036009;28;20033;-75
2022/09/22 12:04:37;;;;;;;3.40;1.10;;;20.00;81.50;;;;;;5040235;28;20132;-76
2022/09/22 12:07:13;;;;;;;2.50;0.95;;;19.90;82.60;;;;;;5026164;28;20531;-74
2022/09/22 12:09:46;;;;;;;3.80;0.68;;;20.10;83.90;;;;;;5029295;28;20079;-76
2022/09/22 12:12:16;;;;;;;3.63;0.65;;;20.10;82.70;;;;;;5032559;28;20045;-74
2022/09/22 12:14:43;;;;;;;1.67;0.70;;;20.30;82.70;;;;;;5030987;28;20203;-72
2022/09/22 12:17:21;;;;;;;2.45;0.73;;;20.20;82.60;;;;;;5027391;28;20025;-75
2022/09/22 12:20:14;;;;;;;1.92;0.93;;;20.30;82.40;;;;;;5024307;28;20034;-75
2022/09/22 12:23:04;;;;;;;0.93;0.50;;;20.30;81.40;;;;;;5027553;28;20043;-74
2022/09/22 12:25:54;;;;;;;4.07;0.80;;;20.40;81.30;;;;;;5027331;28;20034;-75
2022/09/22 12:28:26;;;;;;;2.55;0.85;;;20.30;81.10;;;;;;5027478;28;20060;-75
2022/09/22 12:31:14;;;;;;;2.80;1.00;;;20.40;81.20;;;;;;5028010;28;20025;-74
2022/09/22 12:33:49;;;;;;;1.67;0.60;;;20.30;79.80;;;;;;5023735;28;20037;-75
2022/09/22 12:36:16;;;;;;;0.90;0.43;;;20.40;80.10;;;;;;5025692;28;20021;-75
2022/09/22 12:38:43;;;;;;;5.20;0.52;;;20.50;80.70;;;;;;5023330;28;20052;-75
2022/09/22 12:41:16;;;;;;;2.83;1.05;;;20.40;81.10;;;;;;5035670;28;20033;-75
2022/09/22 12:43:42;;;;;;;5.73;0.57;;;20.50;81.50;;;;;;5025957;28;20057;-75
2022/09/22 12:46:23;;;;;;;1.55;0.60;;;20.40;79.70;;;;;;5023667;28;20116;-75
2022/09/22 12:48:50;;;;;;;1.90;0.63;;;20.30;79.10;;;;;;5026488;28;20037;-75
2022/09/22 12:51:24;;;;;;;4.50;0.93;;;20.20;79.10;;;;;;5023620;28;20032;-74
2022/09/22 12:54:10;;;;;;;3.47;0.88;;;20.20;78.30;;;;;;5023219;28;20029;-74
2022/09/22 12:56:45;;;;;;;1.55;0.65;;;20.20;80.60;;;;;;5026167;28;20033;-75
2022/09/22 12:59:36;;;;;;;4.65;0.80;;;20.40;79.00;;;;;;5023497;28;20029;-75
2022/09/22 13:02:12;;;;;;;1.70;0.60;;;20.50;80.40;;;;;;5024385;28;20025;-75
2022/09/22 13:04:41;;;;;;;2.08;0.60;;;20.30;78.00;;;;;;5022933;28;20060;-76
2022/09/22 13:07:41;;;;;;;2.10;0.70;;;20.50;79.20;;;;;;5027155;28;20063;-75
2022/09/22 13:10:26;;;;;;;2.90;0.60;;;20.50;79.70;;;;;;5023509;28;20091;-75
2022/09/22 13:13:06;;;;;;;1.02;0.60;;;20.50;79.40;;;;;;5023753;28;20148;-75
2022/09/22 13:15:48;;;;;;;2.00;0.90;;;20.40;78.70;;;;;;5027404;28;20025;-75
2022/09/22 13:18:53;;;;;;;1.05;0.47;;;20.50;80.00;;;;;;5024810;28;20376;-75
2022/09/22 13:21:24;;;;;;;2.60;0.60;;;20.60;79.30;;;;;;5022783;28;20039;-74
2022/09/22 13:23:53;;;;;;;3.80;0.70;;;20.50;77.50;;;;;;5025886;28;20052;-74
2022/09/22 13:26:44;;;;;;;1.67;0.65;;;20.40;78.80;;;;;;5024329;28;20108;-74
2022/09/22 13:29:21;;;;;;;1.58;0.55;;;20.60;78.10;;;;;;5030896;28;20139;-74
2022/09/22 13:31:53;;;;;;;1.42;0.70;;;20.60;78.40;;;;;;5029907;28;20037;-75
2022/09/22 13:34:28;;;;;;;1.65;0.50;;;20.60;78.10;;;;;;5029403;28;20093;-74